METAR Data
IDs: Format: Raw Decoded Include TAF

Data at: 2016 UTC 26 Sep 2021

UUOO 262000Z 31008MPS 9999 -SHRA BKN058CB 09/06 Q1010 R30/290155 NOSIG RMK QFE744